sensor_id;sensor_type;location;lat;lon;timestamp;P1;durP1;ratioP1;P2;durP2;ratioP2
64018;SDS011;66942;52.138;5.216;2023-12-20T00:01:31;15.2;;;4.41;;
64018;SDS011;66942;52.138;5.216;2023-12-20T00:03:08;16.8;;;4.41;;
64018;SDS011;66942;52.138;5.216;2023-12-20T00:06:20;17.0;;;4.3;;
64018;SDS011;66942;52.138;5.216;2023-12-20T00:07:56;13.3;;;3.7;;
64018;SDS011;66942;52.138;5.216;2023-12-20T00:09:32;13.5;;;3.5;;
64018;SDS011;66942;52.138;5.216;2023-12-20T00:11:08;15.5;;;4.7;;
64018;SDS011;66942;52.138;5.216;2023-12-20T00:14:20;17.5;;;4.61;;
64018;SDS011;66942;52.138;5.216;2023-12-20T00:15:56;16.2;;;4.0;;
64018;SDS011;66942;52.138;5.216;2023-12-20T00:17:32;18.7;;;4.0;;
64018;SDS011;66942;52.138;5.216;2023-12-20T00:20:45;13.1;;;3.5;;
64018;SDS011;66942;52.138;5.216;2023-12-20T00:22:21;12.2;;;3.3;;
64018;SDS011;66942;52.138;5.216;2023-12-20T00:23:57;14.8;;;3.7;;
64018;SDS011;66942;52.138;5.216;2023-12-20T00:27:09;14.9;;;3.9;;
64018;SDS011;66942;52.138;5.216;2023-12-20T00:28:45;15.5;;;4.1;;
64018;SDS011;66942;52.138;5.216;2023-12-20T00:30:21;13.5;;;3.6;;
64018;SDS011;66942;52.138;5.216;2023-12-20T00:33:33;13.6;;;4.1;;
64018;SDS011;66942;52.138;5.216;2023-12-20T00:35:10;16.9;;;3.9;;
64018;SDS011;66942;52.138;5.216;2023-12-20T00:36:46;13.1;;;3.5;;
64018;SDS011;66942;52.138;5.216;2023-12-20T00:38:22;15.8;;;3.4;;
64018;SDS011;66942;52.138;5.216;2023-12-20T00:41:37;9.31;;;3.3;;
64018;SDS011;66942;52.138;5.216;2023-12-20T00:43:13;18.8;;;3.7;;
64018;SDS011;66942;52.138;5.216;2023-12-20T00:44:49;12.9;;;3.1;;
64018;SDS011;66942;52.138;5.216;2023-12-20T00:48:01;13.8;;;3.5;;
64018;SDS011;66942;52.138;5.216;2023-12-20T00:49:37;15.7;;;3.5;;
64018;SDS011;66942;52.138;5.216;2023-12-20T00:51:13;15.6;;;3.5;;
64018;SDS011;66942;52.138;5.216;2023-12-20T00:54:26;12.0;;;3.8;;
64018;SDS011;66942;52.138;5.216;2023-12-20T00:56:02;18.7;;;4.0;;
64018;SDS011;66942;52.138;5.216;2023-12-20T00:57:38;15.5;;;3.7;;
64018;SDS011;66942;52.138;5.216;2023-12-20T00:59:14;17.61;;;3.5;;
64018;SDS011;66942;52.138;5.216;2023-12-20T01:02:28;12.9;;;3.5;;
64018;SDS011;66942;52.138;5.216;2023-12-20T01:04:04;19.91;;;5.5;;
64018;SDS011;66942;52.138;5.216;2023-12-20T01:05:40;17.3;;;4.61;;
64018;SDS011;66942;52.138;5.216;2023-12-20T01:08:52;19.3;;;5.0;;
64018;SDS011;66942;52.138;5.216;2023-12-20T01:10:28;16.2;;;4.1;;
64018;SDS011;66942;52.138;5.216;2023-12-20T01:12:05;19.3;;;5.9;;
64018;SDS011;66942;52.138;5.216;2023-12-20T01:15:18;16.0;;;5.2;;
64018;SDS011;66942;52.138;5.216;2023-12-20T01:16:54;17.2;;;6.7;;
64018;SDS011;66942;52.138;5.216;2023-12-20T01:18:30;26.1;;;11.1;;
64018;SDS011;66942;52.138;5.216;2023-12-20T01:21:43;24.2;;;9.1;;
64018;SDS011;66942;52.138;5.216;2023-12-20T01:23:19;14.4;;;4.91;;
64018;SDS011;66942;52.138;5.216;2023-12-20T01:24:55;16.0;;;4.2;;
64018;SDS011;66942;52.138;5.216;2023-12-20T01:26:31;14.5;;;4.2;;
64018;SDS011;66942;52.138;5.216;2023-12-20T01:29:44;21.3;;;5.2;;
64018;SDS011;66942;52.138;5.216;2023-12-20T01:31:20;16.11;;;5.0;;
64018;SDS011;66942;52.138;5.216;2023-12-20T01:32:56;16.8;;;5.6;;
64018;SDS011;66942;52.138;5.216;2023-12-20T01:36:08;19.61;;;4.5;;
64018;SDS011;66942;52.138;5.216;2023-12-20T01:37:44;14.7;;;4.1;;
64018;SDS011;66942;52.138;5.216;2023-12-20T01:39:20;22.8;;;4.91;;
64018;SDS011;66942;52.138;5.216;2023-12-20T01:42:32;18.7;;;4.61;;
64018;SDS011;66942;52.138;5.216;2023-12-20T01:44:09;16.0;;;4.2;;
64018;SDS011;66942;52.138;5.216;2023-12-20T01:45:45;16.5;;;4.61;;
64018;SDS011;66942;52.138;5.216;2023-12-20T01:47:22;16.5;;;4.61;;
64018;SDS011;66942;52.138;5.216;2023-12-20T01:50:34;22.9;;;4.91;;
64018;SDS011;66942;52.138;5.216;2023-12-20T01:52:12;18.8;;;4.8;;
64018;SDS011;66942;52.138;5.216;2023-12-20T01:53:48;22.5;;;5.2;;
64018;SDS011;66942;52.138;5.216;2023-12-20T01:57:03;19.2;;;4.5;;
64018;SDS011;66942;52.138;5.216;2023-12-20T01:58:42;14.9;;;5.0;;
64018;SDS011;66942;52.138;5.216;2023-12-20T02:00:24;16.0;;;4.5;;
64018;SDS011;66942;52.138;5.216;2023-12-20T02:02:02;21.8;;;5.11;;
64018;SDS011;66942;52.138;5.216;2023-12-20T02:05:16;20.3;;;5.11;;
64018;SDS011;66942;52.138;5.216;2023-12-20T02:06:53;20.7;;;4.7;;
64018;SDS011;66942;52.138;5.216;2023-12-20T02:08:31;21.0;;;5.0;;
64018;SDS011;66942;52.138;5.216;2023-12-20T02:11:43;18.5;;;5.3;;
64018;SDS011;66942;52.138;5.216;2023-12-20T02:13:19;21.6;;;5.0;;
64018;SDS011;66942;52.138;5.216;2023-12-20T02:14:55;21.6;;;4.8;;
64018;SDS011;66942;52.138;5.216;2023-12-20T02:18:08;17.41;;;4.91;;
64018;SDS011;66942;52.138;5.216;2023-12-20T02:19:44;17.5;;;4.91;;
64018;SDS011;66942;52.138;5.216;2023-12-20T02:21:23;22.9;;;5.6;;
64018;SDS011;66942;52.138;5.216;2023-12-20T02:23:03;17.5;;;5.11;;
64018;SDS011;66942;52.138;5.216;2023-12-20T02:26:15;24.0;;;6.0;;
64018;SDS011;66942;52.138;5.216;2023-12-20T02:27:52;18.91;;;5.4;;
64018;SDS011;66942;52.138;5.216;2023-12-20T02:29:28;26.7;;;6.0;;
64018;SDS011;66942;52.138;5.216;2023-12-20T02:32:41;21.9;;;5.7;;
64018;SDS011;66942;52.138;5.216;2023-12-20T02:34:17;18.0;;;5.2;;
64018;SDS011;66942;52.138;5.216;2023-12-20T02:35:53;21.7;;;4.7;;
64018;SDS011;66942;52.138;5.216;2023-12-20T02:39:05;22.6;;;5.11;;
64018;SDS011;66942;52.138;5.216;2023-12-20T02:40:41;22.1;;;5.5;;
64018;SDS011;66942;52.138;5.216;2023-12-20T02:42:17;23.4;;;6.0;;
64018;SDS011;66942;52.138;5.216;2023-12-20T02:43:53;25.3;;;5.8;;
64018;SDS011;66942;52.138;5.216;2023-12-20T02:47:06;22.5;;;5.9;;
64018;SDS011;66942;52.138;5.216;2023-12-20T02:48:42;25.7;;;5.9;;
64018;SDS011;66942;52.138;5.216;2023-12-20T02:50:18;21.5;;;6.1;;
64018;SDS011;66942;52.138;5.216;2023-12-20T02:53:30;20.5;;;5.6;;
64018;SDS011;66942;52.138;5.216;2023-12-20T02:55:06;19.11;;;4.91;;
64018;SDS011;66942;52.138;5.216;2023-12-20T02:56:45;21.6;;;5.4;;
64018;SDS011;66942;52.138;5.216;2023-12-20T02:59:58;23.7;;;5.7;;
64018;SDS011;66942;52.138;5.216;2023-12-20T03:01:35;22.3;;;5.8;;
64018;SDS011;66942;52.138;5.216;2023-12-20T03:03:10;20.7;;;5.4;;
64018;SDS011;66942;52.138;5.216;2023-12-20T03:04:47;24.9;;;6.2;;
64018;SDS011;66942;52.138;5.216;2023-12-20T03:08:03;24.6;;;6.4;;
64018;SDS011;66942;52.138;5.216;2023-12-20T03:09:40;24.8;;;7.1;;
64018;SDS011;66942;52.138;5.216;2023-12-20T03:11:16;23.2;;;6.2;;
64018;SDS011;66942;52.138;5.216;2023-12-20T03:14:28;22.7;;;6.0;;
64018;SDS011;66942;52.138;5.216;2023-12-20T03:16:07;17.91;;;5.3;;
64018;SDS011;66942;52.138;5.216;2023-12-20T03:17:44;25.6;;;5.9;;
64018;SDS011;66942;52.138;5.216;2023-12-20T03:20:56;22.0;;;5.6;;
64018;SDS011;66942;52.138;5.216;2023-12-20T03:22:33;26.3;;;5.7;;
64018;SDS011;66942;52.138;5.216;2023-12-20T03:24:09;21.6;;;5.7;;
64018;SDS011;66942;52.138;5.216;2023-12-20T03:25:45;17.5;;;5.6;;
64018;SDS011;66942;52.138;5.216;2023-12-20T03:28:57;20.2;;;5.2;;
64018;SDS011;66942;52.138;5.216;2023-12-20T03:30:36;21.0;;;6.7;;
64018;SDS011;66942;52.138;5.216;2023-12-20T03:32:12;28.6;;;7.4;;
64018;SDS011;66942;52.138;5.216;2023-12-20T03:35:24;17.91;;;5.2;;
64018;SDS011;66942;52.138;5.216;2023-12-20T03:37:00;22.7;;;5.9;;
64018;SDS011;66942;52.138;5.216;2023-12-20T03:38:36;24.3;;;5.6;;
64018;SDS011;66942;52.138;5.216;2023-12-20T03:41:49;23.8;;;5.9;;
64018;SDS011;66942;52.138;5.216;2023-12-20T03:43:25;22.9;;;5.9;;
64018;SDS011;66942;52.138;5.216;2023-12-20T03:45:01;23.1;;;5.8;;
64018;SDS011;66942;52.138;5.216;2023-12-20T03:46:37;24.0;;;6.0;;
64018;SDS011;66942;52.138;5.216;2023-12-20T03:49:49;22.1;;;5.8;;
64018;SDS011;66942;52.138;5.216;2023-12-20T03:51:25;23.1;;;6.4;;
64018;SDS011;66942;52.138;5.216;2023-12-20T03:53:05;25.0;;;6.0;;
64018;SDS011;66942;52.138;5.216;2023-12-20T03:56:17;17.8;;;5.7;;
64018;SDS011;66942;52.138;5.216;2023-12-20T03:57:53;26.1;;;5.6;;
64018;SDS011;66942;52.138;5.216;2023-12-20T03:59:29;22.6;;;5.2;;
64018;SDS011;66942;52.138;5.216;2023-12-20T04:02:45;23.8;;;5.6;;
64018;SDS011;66942;52.138;5.216;2023-12-20T04:04:21;21.6;;;5.5;;
64018;SDS011;66942;52.138;5.216;2023-12-20T04:05:57;23.3;;;6.3;;
64018;SDS011;66942;52.138;5.216;2023-12-20T04:07:33;22.1;;;5.5;;
64018;SDS011;66942;52.138;5.216;2023-12-20T04:10:47;20.9;;;5.7;;
64018;SDS011;66942;52.138;5.216;2023-12-20T04:12:23;21.8;;;5.7;;
64018;SDS011;66942;52.138;5.216;2023-12-20T04:13:59;19.3;;;5.5;;
64018;SDS011;66942;52.138;5.216;2023-12-20T04:17:12;21.0;;;5.8;;
64018;SDS011;66942;52.138;5.216;2023-12-20T04:18:50;22.2;;;5.5;;
64018;SDS011;66942;52.138;5.216;2023-12-20T04:20:26;22.1;;;5.2;;
64018;SDS011;66942;52.138;5.216;2023-12-20T04:23:38;18.5;;;5.6;;
64018;SDS011;66942;52.138;5.216;2023-12-20T04:25:14;22.6;;;7.0;;
64018;SDS011;66942;52.138;5.216;2023-12-20T04:26:50;23.6;;;6.6;;
64018;SDS011;66942;52.138;5.216;2023-12-20T04:28:26;17.8;;;5.3;;
64018;SDS011;66942;52.138;5.216;2023-12-20T04:31:40;19.0;;;6.5;;
64018;SDS011;66942;52.138;5.216;2023-12-20T04:33:16;25.2;;;7.0;;
64018;SDS011;66942;52.138;5.216;2023-12-20T04:34:52;27.4;;;6.8;;
64018;SDS011;66942;52.138;5.216;2023-12-20T04:38:04;21.3;;;6.3;;
64018;SDS011;66942;52.138;5.216;2023-12-20T04:39:40;25.8;;;7.3;;
64018;SDS011;66942;52.138;5.216;2023-12-20T04:41:16;23.7;;;6.7;;
64018;SDS011;66942;52.138;5.216;2023-12-20T04:44:28;24.5;;;6.9;;
64018;SDS011;66942;52.138;5.216;2023-12-20T04:46:04;25.4;;;6.9;;
64018;SDS011;66942;52.138;5.216;2023-12-20T04:47:41;24.1;;;7.0;;
64018;SDS011;66942;52.138;5.216;2023-12-20T04:50:54;21.5;;;6.6;;
64018;SDS011;66942;52.138;5.216;2023-12-20T04:52:30;21.5;;;7.0;;
64018;SDS011;66942;52.138;5.216;2023-12-20T04:54:06;29.6;;;7.0;;
64018;SDS011;66942;52.138;5.216;2023-12-20T04:55:42;24.4;;;6.4;;
64018;SDS011;66942;52.138;5.216;2023-12-20T04:58:54;22.2;;;7.2;;
64018;SDS011;66942;52.138;5.216;2023-12-20T05:00:30;20.11;;;6.5;;
64018;SDS011;66942;52.138;5.216;2023-12-20T05:02:07;23.2;;;7.0;;
64018;SDS011;66942;52.138;5.216;2023-12-20T05:05:19;25.3;;;7.1;;
64018;SDS011;66942;52.138;5.216;2023-12-20T05:06:56;21.3;;;6.6;;
64018;SDS011;66942;52.138;5.216;2023-12-20T05:08:32;24.4;;;7.0;;
64018;SDS011;66942;52.138;5.216;2023-12-20T05:11:45;24.4;;;7.1;;
64018;SDS011;66942;52.138;5.216;2023-12-20T05:13:21;25.1;;;7.0;;
64018;SDS011;66942;52.138;5.216;2023-12-20T05:14:58;22.2;;;7.0;;
64018;SDS011;66942;52.138;5.216;2023-12-20T05:16:34;22.6;;;7.2;;
64018;SDS011;66942;52.138;5.216;2023-12-20T05:19:47;24.2;;;7.0;;
64018;SDS011;66942;52.138;5.216;2023-12-20T05:21:23;22.0;;;6.9;;
64018;SDS011;66942;52.138;5.216;2023-12-20T05:23:02;23.8;;;6.4;;
64018;SDS011;66942;52.138;5.216;2023-12-20T05:26:14;23.8;;;7.0;;
64018;SDS011;66942;52.138;5.216;2023-12-20T05:27:50;21.2;;;6.5;;
64018;SDS011;66942;52.138;5.216;2023-12-20T05:29:26;22.0;;;6.5;;
64018;SDS011;66942;52.138;5.216;2023-12-20T05:32:38;24.6;;;6.3;;
64018;SDS011;66942;52.138;5.216;2023-12-20T05:34:14;23.0;;;6.1;;
64018;SDS011;66942;52.138;5.216;2023-12-20T05:35:49;23.5;;;6.7;;
64018;SDS011;66942;52.138;5.216;2023-12-20T05:39:02;27.6;;;6.6;;
64018;SDS011;66942;52.138;5.216;2023-12-20T05:40:39;21.9;;;6.6;;
64018;SDS011;66942;52.138;5.216;2023-12-20T05:42:15;20.0;;;6.2;;
64018;SDS011;66942;52.138;5.216;2023-12-20T05:43:51;23.6;;;6.4;;
64018;SDS011;66942;52.138;5.216;2023-12-20T05:47:03;13.8;;;5.2;;
64018;SDS011;66942;52.138;5.216;2023-12-20T05:48:39;19.3;;;6.5;;
64018;SDS011;66942;52.138;5.216;2023-12-20T05:50:15;20.2;;;6.0;;
64018;SDS011;66942;52.138;5.216;2023-12-20T05:53:27;24.8;;;6.9;;
64018;SDS011;66942;52.138;5.216;2023-12-20T05:55:04;22.6;;;6.5;;
64018;SDS011;66942;52.138;5.216;2023-12-20T05:56:40;20.8;;;6.2;;
64018;SDS011;66942;52.138;5.216;2023-12-20T05:59:52;22.9;;;6.0;;
64018;SDS011;66942;52.138;5.216;2023-12-20T06:01:28;30.0;;;7.5;;
64018;SDS011;66942;52.138;5.216;2023-12-20T06:03:04;22.2;;;6.7;;
64018;SDS011;66942;52.138;5.216;2023-12-20T06:04:41;28.4;;;6.9;;
64018;SDS011;66942;52.138;5.216;2023-12-20T06:07:53;24.0;;;6.6;;
64018;SDS011;66942;52.138;5.216;2023-12-20T06:09:29;20.8;;;6.3;;
64018;SDS011;66942;52.138;5.216;2023-12-20T06:11:05;21.4;;;6.4;;
64018;SDS011;66942;52.138;5.216;2023-12-20T06:14:18;22.4;;;7.0;;
64018;SDS011;66942;52.138;5.216;2023-12-20T06:15:54;20.6;;;6.5;;
64018;SDS011;66942;52.138;5.216;2023-12-20T06:17:30;22.5;;;6.5;;
64018;SDS011;66942;52.138;5.216;2023-12-20T06:20:45;24.2;;;6.5;;
64018;SDS011;66942;52.138;5.216;2023-12-20T06:22:21;26.3;;;6.9;;
64018;SDS011;66942;52.138;5.216;2023-12-20T06:23:58;24.4;;;6.9;;
64018;SDS011;66942;52.138;5.216;2023-12-20T06:27:10;23.7;;;6.5;;
64018;SDS011;66942;52.138;5.216;2023-12-20T06:28:46;21.6;;;6.2;;
64018;SDS011;66942;52.138;5.216;2023-12-20T06:30:23;24.4;;;6.4;;
64018;SDS011;66942;52.138;5.216;2023-12-20T06:31:59;19.11;;;6.4;;
64018;SDS011;66942;52.138;5.216;2023-12-20T06:35:12;24.0;;;6.3;;
64018;SDS011;66942;52.138;5.216;2023-12-20T06:36:48;21.4;;;6.0;;
64018;SDS011;66942;52.138;5.216;2023-12-20T06:38:24;16.7;;;5.7;;
64018;SDS011;66942;52.138;5.216;2023-12-20T06:41:39;22.5;;;6.6;;
64018;SDS011;66942;52.138;5.216;2023-12-20T06:43:15;21.1;;;6.6;;
64018;SDS011;66942;52.138;5.216;2023-12-20T06:44:51;21.7;;;6.3;;
64018;SDS011;66942;52.138;5.216;2023-12-20T06:48:04;19.91;;;6.9;;
64018;SDS011;66942;52.138;5.216;2023-12-20T06:49:41;22.6;;;6.4;;
64018;SDS011;66942;52.138;5.216;2023-12-20T06:51:17;23.0;;;6.6;;
64018;SDS011;66942;52.138;5.216;2023-12-20T06:52:56;22.0;;;6.8;;
64018;SDS011;66942;52.138;5.216;2023-12-20T06:56:10;24.5;;;6.7;;
64018;SDS011;66942;52.138;5.216;2023-12-20T06:57:46;20.3;;;6.2;;
64018;SDS011;66942;52.138;5.216;2023-12-20T06:59:22;20.3;;;6.2;;
64018;SDS011;66942;52.138;5.216;2023-12-20T07:02:34;27.3;;;7.2;;
64018;SDS011;66942;52.138;5.216;2023-12-20T07:04:14;24.4;;;6.5;;
64018;SDS011;66942;52.138;5.216;2023-12-20T07:05:50;19.11;;;6.1;;
64018;SDS011;66942;52.138;5.216;2023-12-20T07:07:26;21.8;;;6.6;;
64018;SDS011;66942;52.138;5.216;2023-12-20T07:10:38;23.1;;;5.9;;
64018;SDS011;66942;52.138;5.216;2023-12-20T07:12:14;23.6;;;6.7;;
64018;SDS011;66942;52.138;5.216;2023-12-20T07:13:50;22.2;;;5.9;;
64018;SDS011;66942;52.138;5.216;2023-12-20T07:17:05;23.2;;;7.1;;
64018;SDS011;66942;52.138;5.216;2023-12-20T07:18:41;23.1;;;6.7;;
64018;SDS011;66942;52.138;5.216;2023-12-20T07:20:18;21.3;;;6.9;;
64018;SDS011;66942;52.138;5.216;2023-12-20T07:23:30;28.3;;;7.2;;
64018;SDS011;66942;52.138;5.216;2023-12-20T07:25:06;23.0;;;6.8;;
64018;SDS011;66942;52.138;5.216;2023-12-20T07:26:46;27.1;;;7.0;;
64018;SDS011;66942;52.138;5.216;2023-12-20T07:28:22;25.0;;;7.0;;
64018;SDS011;66942;52.138;5.216;2023-12-20T07:31:34;23.2;;;6.5;;
64018;SDS011;66942;52.138;5.216;2023-12-20T07:33:10;25.8;;;7.1;;
64018;SDS011;66942;52.138;5.216;2023-12-20T07:34:46;25.2;;;7.4;;
64018;SDS011;66942;52.138;5.216;2023-12-20T07:38:02;22.8;;;5.7;;
64018;SDS011;66942;52.138;5.216;2023-12-20T07:39:38;20.8;;;6.6;;
64018;SDS011;66942;52.138;5.216;2023-12-20T07:41:15;28.7;;;7.3;;
64018;SDS011;66942;52.138;5.216;2023-12-20T07:44:27;22.9;;;6.5;;
64018;SDS011;66942;52.138;5.216;2023-12-20T07:46:04;23.0;;;6.8;;
64018;SDS011;66942;52.138;5.216;2023-12-20T07:47:40;21.5;;;6.4;;
64018;SDS011;66942;52.138;5.216;2023-12-20T07:49:16;21.3;;;6.7;;
64018;SDS011;66942;52.138;5.216;2023-12-20T07:52:28;25.2;;;7.0;;
64018;SDS011;66942;52.138;5.216;2023-12-20T07:54:05;26.5;;;7.4;;
64018;SDS011;66942;52.138;5.216;2023-12-20T07:55:41;22.7;;;6.9;;
64018;SDS011;66942;52.138;5.216;2023-12-20T07:58:53;24.3;;;6.9;;
64018;SDS011;66942;52.138;5.216;2023-12-20T08:00:29;24.6;;;7.3;;
64018;SDS011;66942;52.138;5.216;2023-12-20T08:02:05;23.6;;;6.7;;
64018;SDS011;66942;52.138;5.216;2023-12-20T08:05:17;23.4;;;7.0;;
64018;SDS011;66942;52.138;5.216;2023-12-20T08:06:53;26.1;;;7.7;;
64018;SDS011;66942;52.138;5.216;2023-12-20T08:08:29;26.4;;;7.2;;
64018;SDS011;66942;52.138;5.216;2023-12-20T08:11:44;22.6;;;6.4;;
64018;SDS011;66942;52.138;5.216;2023-12-20T08:13:21;22.6;;;6.7;;
64018;SDS011;66942;52.138;5.216;2023-12-20T08:14:56;20.9;;;6.7;;
64018;SDS011;66942;52.138;5.216;2023-12-20T08:16:33;21.5;;;6.9;;
64018;SDS011;66942;52.138;5.216;2023-12-20T08:19:45;23.8;;;6.9;;
64018;SDS011;66942;52.138;5.216;2023-12-20T08:21:21;23.5;;;7.1;;
64018;SDS011;66942;52.138;5.216;2023-12-20T08:22:57;24.8;;;6.9;;
64018;SDS011;66942;52.138;5.216;2023-12-20T08:26:10;23.4;;;6.8;;
64018;SDS011;66942;52.138;5.216;2023-12-20T08:27:46;25.1;;;7.6;;
64018;SDS011;66942;52.138;5.216;2023-12-20T08:29:22;22.5;;;6.3;;
64018;SDS011;66942;52.138;5.216;2023-12-20T08:32:34;22.9;;;6.5;;
64018;SDS011;66942;52.138;5.216;2023-12-20T08:34:13;21.7;;;6.7;;
64018;SDS011;66942;52.138;5.216;2023-12-20T08:35:49;26.8;;;7.7;;
64018;SDS011;66942;52.138;5.216;2023-12-20T08:37:25;23.9;;;6.4;;
64018;SDS011;66942;52.138;5.216;2023-12-20T08:40:37;25.1;;;7.3;;
64018;SDS011;66942;52.138;5.216;2023-12-20T08:42:14;23.6;;;6.9;;
64018;SDS011;66942;52.138;5.216;2023-12-20T08:43:50;22.5;;;6.7;;
64018;SDS011;66942;52.138;5.216;2023-12-20T08:47:02;25.4;;;7.0;;
64018;SDS011;66942;52.138;5.216;2023-12-20T08:48:39;24.9;;;6.5;;
64018;SDS011;66942;52.138;5.216;2023-12-20T08:50:15;25.9;;;7.5;;
64018;SDS011;66942;52.138;5.216;2023-12-20T08:53:27;22.7;;;6.4;;
64018;SDS011;66942;52.138;5.216;2023-12-20T08:55:04;24.7;;;6.4;;
64018;SDS011;66942;52.138;5.216;2023-12-20T08:56:40;19.5;;;6.2;;
64018;SDS011;66942;52.138;5.216;2023-12-20T08:59:53;21.5;;;6.2;;
64018;SDS011;66942;52.138;5.216;2023-12-20T09:01:29;23.6;;;6.9;;
64018;SDS011;66942;52.138;5.216;2023-12-20T09:03:05;28.7;;;6.5;;
64018;SDS011;66942;52.138;5.216;2023-12-20T09:04:41;20.7;;;6.5;;
64018;SDS011;66942;52.138;5.216;2023-12-20T09:07:54;21.2;;;6.3;;
64018;SDS011;66942;52.138;5.216;2023-12-20T09:09:30;18.61;;;6.0;;
64018;SDS011;66942;52.138;5.216;2023-12-20T09:11:06;25.1;;;6.2;;
64018;SDS011;66942;52.138;5.216;2023-12-20T09:14:19;23.4;;;6.8;;
64018;SDS011;66942;52.138;5.216;2023-12-20T09:15:55;24.1;;;7.0;;
64018;SDS011;66942;52.138;5.216;2023-12-20T09:17:31;22.0;;;6.4;;
64018;SDS011;66942;52.138;5.216;2023-12-20T09:20:46;24.3;;;7.0;;
64018;SDS011;66942;52.138;5.216;2023-12-20T09:22:22;17.3;;;5.6;;
64018;SDS011;66942;52.138;5.216;2023-12-20T09:23:58;25.4;;;6.5;;
64018;SDS011;66942;52.138;5.216;2023-12-20T09:25:34;16.0;;;5.6;;
64018;SDS011;66942;52.138;5.216;2023-12-20T09:28:46;20.41;;;6.0;;
64018;SDS011;66942;52.138;5.216;2023-12-20T09:30:23;27.0;;;7.5;;
64018;SDS011;66942;52.138;5.216;2023-12-20T09:31:59;20.9;;;6.6;;
64018;SDS011;66942;52.138;5.216;2023-12-20T09:35:12;20.41;;;5.6;;
64018;SDS011;66942;52.138;5.216;2023-12-20T09:36:48;18.2;;;5.6;;
64018;SDS011;66942;52.138;5.216;2023-12-20T09:38:24;19.61;;;5.6;;
64018;SDS011;66942;52.138;5.216;2023-12-20T09:41:41;19.91;;;5.7;;
64018;SDS011;66942;52.138;5.216;2023-12-20T09:43:20;19.0;;;6.1;;
64018;SDS011;66942;52.138;5.216;2023-12-20T09:44:59;22.5;;;6.4;;
64018;SDS011;66942;52.138;5.216;2023-12-20T09:46:38;18.0;;;5.9;;
64018;SDS011;66942;52.138;5.216;2023-12-20T09:49:55;23.1;;;5.8;;
64018;SDS011;66942;52.138;5.216;2023-12-20T09:51:32;21.8;;;6.1;;
64018;SDS011;66942;52.138;5.216;2023-12-20T09:53:14;20.6;;;6.0;;
64018;SDS011;66942;52.138;5.216;2023-12-20T09:54:53;19.11;;;5.9;;
64018;SDS011;66942;52.138;5.216;2023-12-20T09:58:08;20.11;;;5.9;;
64018;SDS011;66942;52.138;5.216;2023-12-20T09:59:44;20.11;;;6.2;;
64018;SDS011;66942;52.138;5.216;2023-12-20T10:01:21;20.41;;;5.8;;
64018;SDS011;66942;52.138;5.216;2023-12-20T10:04:36;17.61;;;5.7;;
64018;SDS011;66942;52.138;5.216;2023-12-20T10:06:12;18.11;;;6.0;;
64018;SDS011;66942;52.138;5.216;2023-12-20T10:07:48;19.41;;;5.5;;
64018;SDS011;66942;52.138;5.216;2023-12-20T10:11:00;20.3;;;6.1;;
64018;SDS011;66942;52.138;5.216;2023-12-20T10:12:36;20.3;;;6.1;;
64018;SDS011;66942;52.138;5.216;2023-12-20T10:14:12;20.6;;;5.9;;
64018;SDS011;66942;52.138;5.216;2023-12-20T10:15:51;22.6;;;6.4;;
64018;SDS011;66942;52.138;5.216;2023-12-20T10:19:03;19.91;;;6.0;;
64018;SDS011;66942;52.138;5.216;2023-12-20T10:20:40;21.2;;;6.1;;
64018;SDS011;66942;52.138;5.216;2023-12-20T10:22:17;23.4;;;6.1;;
64018;SDS011;66942;52.138;5.216;2023-12-20T10:25:30;21.5;;;6.2;;
64018;SDS011;66942;52.138;5.216;2023-12-20T10:27:06;19.41;;;6.2;;
64018;SDS011;66942;52.138;5.216;2023-12-20T10:28:44;15.6;;;5.5;;
64018;SDS011;66942;52.138;5.216;2023-12-20T10:31:56;19.41;;;6.2;;
64018;SDS011;66942;52.138;5.216;2023-12-20T10:33:32;23.2;;;6.4;;
64018;SDS011;66942;52.138;5.216;2023-12-20T10:35:08;18.8;;;5.9;;
64018;SDS011;66942;52.138;5.216;2023-12-20T10:36:44;21.7;;;6.3;;
64018;SDS011;66942;52.138;5.216;2023-12-20T10:39:57;20.3;;;5.9;;
64018;SDS011;66942;52.138;5.216;2023-12-20T10:41:38;20.3;;;6.6;;
64018;SDS011;66942;52.138;5.216;2023-12-20T10:43:15;19.91;;;6.3;;
64018;SDS011;66942;52.138;5.216;2023-12-20T10:46:28;21.2;;;6.4;;
64018;SDS011;66942;52.138;5.216;2023-12-20T10:48:05;18.3;;;5.7;;
64018;SDS011;66942;52.138;5.216;2023-12-20T10:49:43;20.6;;;6.0;;
64018;SDS011;66942;52.138;5.216;2023-12-20T10:51:21;22.2;;;6.3;;
64018;SDS011;66942;52.138;5.216;2023-12-20T10:54:35;19.0;;;6.0;;
64018;SDS011;66942;52.138;5.216;2023-12-20T10:56:11;20.9;;;6.0;;
64018;SDS011;66942;52.138;5.216;2023-12-20T10:57:51;21.3;;;5.5;;
64018;SDS011;66942;52.138;5.216;2023-12-20T11:01:12;18.3;;;5.7;;
64018;SDS011;66942;52.138;5.216;2023-12-20T11:02:49;20.3;;;6.6;;
64018;SDS011;66942;52.138;5.216;2023-12-20T11:04:29;21.1;;;5.8;;
64018;SDS011;66942;52.138;5.216;2023-12-20T11:06:18;16.3;;;5.5;;
64018;SDS011;66942;52.138;5.216;2023-12-20T11:08:10;18.3;;;5.3;;
64018;SDS011;66942;52.138;5.216;2023-12-20T11:11:57;18.2;;;5.7;;
64018;SDS011;66942;52.138;5.216;2023-12-20T11:13:40;21.1;;;5.7;;
64018;SDS011;66942;52.138;5.216;2023-12-20T11:15:24;16.5;;;4.91;;
64018;SDS011;66942;52.138;5.216;2023-12-20T11:17:05;20.11;;;5.8;;
64018;SDS011;66942;52.138;5.216;2023-12-20T11:18:42;20.0;;;5.5;;
64018;SDS011;66942;52.138;5.216;2023-12-20T11:21:58;16.3;;;4.91;;
64018;SDS011;66942;52.138;5.216;2023-12-20T11:23:34;15.6;;;4.91;;
64018;SDS011;66942;52.138;5.216;2023-12-20T11:25:11;17.7;;;6.3;;
64018;SDS011;66942;52.138;5.216;2023-12-20T11:28:24;17.0;;;5.4;;
64018;SDS011;66942;52.138;5.216;2023-12-20T11:30:02;17.3;;;5.9;;
64018;SDS011;66942;52.138;5.216;2023-12-20T11:31:40;14.1;;;5.0;;
64018;SDS011;66942;52.138;5.216;2023-12-20T11:33:22;18.41;;;5.5;;
64018;SDS011;66942;52.138;5.216;2023-12-20T11:36:56;17.3;;;5.2;;
64018;SDS011;66942;52.138;5.216;2023-12-20T11:38:35;13.4;;;4.91;;
64018;SDS011;66942;52.138;5.216;2023-12-20T11:40:12;18.8;;;5.3;;
64018;SDS011;66942;52.138;5.216;2023-12-20T11:41:50;17.61;;;5.11;;
64018;SDS011;66942;52.138;5.216;2023-12-20T11:45:08;19.0;;;5.6;;
64018;SDS011;66942;52.138;5.216;2023-12-20T11:46:44;15.0;;;4.5;;
64018;SDS011;66942;52.138;5.216;2023-12-20T11:48:20;14.4;;;5.7;;
64018;SDS011;66942;52.138;5.216;2023-12-20T11:49:56;15.4;;;4.7;;
64018;SDS011;66942;52.138;5.216;2023-12-20T11:53:09;16.9;;;5.11;;
64018;SDS011;66942;52.138;5.216;2023-12-20T11:54:46;15.5;;;4.8;;
64018;SDS011;66942;52.138;5.216;2023-12-20T11:56:22;16.11;;;4.8;;
64018;SDS011;66942;52.138;5.216;2023-12-20T11:59:34;15.6;;;4.8;;
64018;SDS011;66942;52.138;5.216;2023-12-20T12:01:13;15.9;;;4.2;;
64018;SDS011;66942;52.138;5.216;2023-12-20T12:02:55;16.61;;;4.41;;
64018;SDS011;66942;52.138;5.216;2023-12-20T12:04:32;13.9;;;4.7;;
64018;SDS011;66942;52.138;5.216;2023-12-20T12:07:44;15.7;;;5.0;;
64018;SDS011;66942;52.138;5.216;2023-12-20T12:09:20;15.1;;;4.91;;
64018;SDS011;66942;52.138;5.216;2023-12-20T12:10:57;15.3;;;5.0;;
64018;SDS011;66942;52.138;5.216;2023-12-20T12:14:09;16.61;;;5.2;;
64018;SDS011;66942;52.138;5.216;2023-12-20T12:15:45;16.61;;;5.2;;
64018;SDS011;66942;52.138;5.216;2023-12-20T12:17:21;16.3;;;4.8;;
64018;SDS011;66942;52.138;5.216;2023-12-20T12:20:34;16.11;;;4.7;;
64018;SDS011;66942;52.138;5.216;2023-12-20T12:22:11;16.11;;;4.91;;
64018;SDS011;66942;52.138;5.216;2023-12-20T12:23:49;14.4;;;4.5;;
64018;SDS011;66942;52.138;5.216;2023-12-20T12:25:26;15.4;;;5.3;;
64018;SDS011;66942;52.138;5.216;2023-12-20T12:28:39;15.6;;;4.7;;
64018;SDS011;66942;52.138;5.216;2023-12-20T12:30:16;19.41;;;5.8;;
64018;SDS011;66942;52.138;5.216;2023-12-20T12:31:52;16.5;;;4.91;;
64018;SDS011;66942;52.138;5.216;2023-12-20T12:35:05;18.7;;;5.4;;
64018;SDS011;66942;52.138;5.216;2023-12-20T12:36:41;13.8;;;5.0;;
64018;SDS011;66942;52.138;5.216;2023-12-20T12:38:19;16.11;;;5.0;;
64018;SDS011;66942;52.138;5.216;2023-12-20T12:41:35;14.6;;;4.91;;
64018;SDS011;66942;52.138;5.216;2023-12-20T12:43:11;16.8;;;5.0;;
64018;SDS011;66942;52.138;5.216;2023-12-20T12:44:47;15.7;;;5.11;;